Time;durP1;ratioP1;P1;durP2;ratioP2;P2;SDS_P1;SDS_P2;PMS_P1;PMS_P2;Temp;Humidity;BMP_temperature;BMP_pressure;BME280_temperature;BME280_humidity;BME280_pressure;Samples;Min_cycle;Max_cycle;Signal;HPM_P1;HPM_P2
2023/07/30 00:02:20;;;;;;;16.47;7.57;;;;;;;21.52;61.06;100026.87;124982;1102;104248;-85
2023/07/30 00:04:52;;;;;;;16.90;8.03;;;;;;;21.44;61.96;100031.44;125001;1102;102134;-85
2023/07/30 00:07:23;;;;;;;15.00;7.57;;;;;;;21.38;61.28;100031.54;125030;1102;104182;-84
2023/07/30 00:09:54;;;;;;;13.70;7.43;;;;;;;21.30;62.22;100030.75;124751;1102;101864;-84
2023/07/30 00:12:26;;;;;;;13.37;7.40;;;;;;;21.26;61.78;100029.06;125058;1101;104272;-85
2023/07/30 00:14:57;;;;;;;15.13;7.93;;;;;;;21.27;62.32;100029.04;125048;1102;101931;-84
2023/07/30 00:17:28;;;;;;;15.23;7.73;;;;;;;21.32;62.26;100028.97;124967;1102;104284;-84
2023/07/30 00:19:59;;;;;;;13.63;7.43;;;;;;;21.35;61.97;100024.45;125103;1102;102006;-84
2023/07/30 00:22:31;;;;;;;18.23;7.63;;;;;;;21.33;62.52;100025.38;125040;1102;102089;-84
2023/07/30 00:25:03;;;;;;;18.07;7.93;;;;;;;21.29;63.13;100018.34;125003;1102;104211;-85
2023/07/30 00:27:34;;;;;;;15.20;8.10;;;;;;;21.23;62.35;100013.10;125077;1102;104073;-85
2023/07/30 00:30:07;;;;;;;14.47;8.23;;;;;;;21.21;63.31;100014.89;124955;1101;104182;-85
2023/07/30 00:32:43;;;;;;;16.97;8.05;;;;;;;21.17;63.39;100020.27;125090;1102;101984;-84
2023/07/30 00:35:14;;;;;;;15.80;7.60;;;;;;;21.08;63.62;100019.54;125010;1102;104297;-85
2023/07/30 00:37:46;;;;;;;14.00;8.10;;;;;;;20.99;64.03;100021.45;125081;1102;101963;-84
2023/07/30 00:40:18;;;;;;;18.43;7.83;;;;;;;20.92;64.44;100017.09;125006;1102;102028;-84
2023/07/30 00:42:49;;;;;;;19.50;7.93;;;;;;;20.89;64.35;100016.27;125044;1102;104277;-85
2023/07/30 00:45:21;;;;;;;15.77;8.13;;;;;;;20.87;64.14;100018.09;125061;1102;104243;-85
2023/07/30 00:47:53;;;;;;;16.60;7.77;;;;;;;20.91;64.29;100019.78;124936;1102;102411;-85
2023/07/30 00:50:24;;;;;;;22.23;8.20;;;;;;;20.96;65.16;100026.83;125065;1102;102083;-86
2023/07/30 00:52:56;;;;;;;18.80;8.33;;;;;;;20.98;64.30;100032.14;125178;1102;104374;-87
2023/07/30 00:55:27;;;;;;;17.60;7.77;;;;;;;20.99;64.47;100028.58;125160;1101;104169;-84
2023/07/30 00:57:59;;;;;;;15.50;8.00;;;;;;;20.99;64.84;100018.78;125003;1102;110776;-84
2023/07/30 01:00:31;;;;;;;14.77;7.90;;;;;;;20.95;64.49;100018.85;125060;1102;104225;-84
2023/07/30 01:03:04;;;;;;;17.33;8.50;;;;;;;20.86;65.30;100010.98;125316;1101;102174;-83
2023/07/30 01:05:36;;;;;;;16.23;7.37;;;;;;;20.81;64.96;100019.05;125040;1102;102508;-84
2023/07/30 01:08:07;;;;;;;14.30;7.60;;;;;;;20.76;65.12;100020.91;125222;1103;101887;-83
2023/07/30 01:10:41;;;;;;;16.07;7.93;;;;;;;20.71;65.05;100018.30;125801;1102;102016;-84
2023/07/30 01:13:13;;;;;;;19.07;8.17;;;;;;;20.65;65.54;100018.38;125281;1102;102327;-84
2023/07/30 01:15:45;;;;;;;19.63;8.40;;;;;;;20.58;66.16;100019.31;124894;1102;102022;-83
2023/07/30 01:18:17;;;;;;;16.43;8.17;;;;;;;20.54;65.81;100021.16;125039;1102;107964;-83
2023/07/30 01:20:48;;;;;;;16.03;8.33;;;;;;;20.56;66.82;100018.47;125020;1102;101888;-84
2023/07/30 01:23:19;;;;;;;15.97;6.97;;;;;;;20.63;66.08;100017.47;125045;1102;102202;-83
2023/07/30 01:25:54;;;;;;;15.37;8.07;;;;;;;20.69;65.78;100025.41;124940;1102;101885;-83
2023/07/30 01:28:27;;;;;;;16.10;8.00;;;;;;;20.68;66.93;100020.11;125166;1102;103776;-83
2023/07/30 01:31:01;;;;;;;16.20;8.07;;;;;;;20.64;66.01;100027.23;125097;1102;102286;-83
2023/07/30 01:33:33;;;;;;;16.83;8.73;;;;;;;20.61;66.34;100033.48;125446;1101;102947;-82
2023/07/30 01:36:06;;;;;;;16.60;8.30;;;;;;;20.61;66.99;100025.48;125234;1102;102198;-84
2023/07/30 01:38:39;;;;;;;14.95;7.67;;;;;;;20.55;67.05;100024.69;125028;1102;104245;-84
2023/07/30 01:41:10;;;;;;;15.03;8.47;;;;;;;20.55;66.75;100030.89;124937;1102;104230;-83
2023/07/30 01:43:41;;;;;;;17.87;7.87;;;;;;;20.57;66.55;100023.78;124983;1102;102007;-82
2023/07/30 01:46:13;;;;;;;17.20;8.40;;;;;;;20.55;67.06;100019.36;124965;1102;101900;-83
2023/07/30 01:48:44;;;;;;;16.27;8.30;;;;;;;20.50;67.42;100015.88;124922;1102;104284;-84
2023/07/30 01:51:15;;;;;;;17.57;8.40;;;;;;;20.50;67.82;100018.55;125109;1102;104102;-84
2023/07/30 01:53:46;;;;;;;17.67;8.47;;;;;;;20.50;67.45;100026.54;125620;1101;104178;-83
2023/07/30 01:56:18;;;;;;;17.57;8.43;;;;;;;20.52;67.29;100030.06;126018;1102;103970;-84
2023/07/30 01:58:49;;;;;;;18.07;8.07;;;;;;;20.55;67.08;100038.02;126168;1102;101720;-82
2023/07/30 02:01:20;;;;;;;16.20;8.27;;;;;;;20.57;67.72;100039.77;126184;1102;101734;-81
2023/07/30 02:03:51;;;;;;;18.03;8.97;;;;;;;20.50;67.05;100043.41;126451;1101;101685;-83
2023/07/30 02:06:23;;;;;;;18.23;8.77;;;;;;;20.39;68.47;100035.53;124905;1102;104191;-82
2023/07/30 02:08:54;;;;;;;15.80;8.30;;;;;;;20.29;68.71;100039.23;124769;1102;103371;-82
2023/07/30 02:11:25;;;;;;;18.13;8.77;;;;;;;20.21;67.71;100036.65;124869;1102;104185;-82
2023/07/30 02:13:57;;;;;;;13.97;7.73;;;;;;;20.11;68.76;100035.84;124940;1102;104114;-83
2023/07/30 02:16:28;;;;;;;17.90;8.83;;;;;;;20.04;68.67;100034.17;124785;1102;104238;-82
2023/07/30 02:18:59;;;;;;;15.90;8.50;;;;;;;19.98;68.39;100036.89;124934;1102;101968;-82
2023/07/30 02:21:32;;;;;;;19.73;9.03;;;;;;;19.92;69.02;100034.30;124742;1102;104278;-82
2023/07/30 02:24:03;;;;;;;20.13;9.20;;;;;;;19.88;68.69;100043.20;124865;1102;104299;-82
2023/07/30 02:26:35;;;;;;;16.10;8.50;;;;;;;19.84;69.65;100042.36;124799;1102;102397;-82
2023/07/30 02:29:06;;;;;;;18.73;9.10;;;;;;;19.80;69.55;100045.93;124838;1102;104163;-81
2023/07/30 02:31:37;;;;;;;16.20;8.33;;;;;;;19.75;69.93;100045.94;125060;1101;101944;-82
2023/07/30 02:34:08;;;;;;;18.53;8.43;;;;;;;19.70;69.96;100050.43;125071;1102;102201;-82
2023/07/30 02:36:40;;;;;;;16.03;9.03;;;;;;;19.62;69.48;100046.06;125161;1102;103256;-82
2023/07/30 02:39:11;;;;;;;16.43;8.80;;;;;;;19.53;70.65;100047.04;124891;1102;104163;-82
2023/07/30 02:41:42;;;;;;;18.30;8.97;;;;;;;19.47;70.75;100049.75;125008;1102;102132;-83
2023/07/30 02:44:13;;;;;;;14.87;8.37;;;;;;;19.43;71.05;100054.22;125413;1102;101951;-83
2023/07/30 02:46:45;;;;;;;18.25;9.40;;;;;;;19.43;70.57;100055.98;124828;1102;102118;-83
2023/07/30 02:49:16;;;;;;;15.07;8.13;;;;;;;19.40;70.22;100051.59;125097;1102;104176;-84
2023/07/30 02:51:48;;;;;;;15.33;8.73;;;;;;;19.38;70.61;100051.59;124987;1102;102067;-84
2023/07/30 02:54:21;;;;;;;17.13;8.57;;;;;;;19.35;71.05;100059.59;125198;1102;104270;-84
2023/07/30 02:56:53;;;;;;;16.12;8.90;;;;;;;19.30;70.89;100056.06;125166;1102;102047;-84
2023/07/30 02:59:24;;;;;;;16.65;8.30;;;;;;;19.26;71.62;100054.34;125310;1102;101985;-85
2023/07/30 03:01:56;;;;;;;15.37;8.60;;;;;;;19.25;71.73;100055.23;124962;1102;101796;-86
2023/07/30 03:04:27;;;;;;;16.07;8.57;;;;;;;19.31;71.48;100060.50;125010;1102;104364;-84
2023/07/30 03:06:58;;;;;;;18.30;9.27;;;;;;;19.31;72.31;100056.97;125483;1101;101902;-84
2023/07/30 03:09:29;;;;;;;16.50;8.80;;;;;;;19.30;71.66;100052.53;125545;1101;104284;-83
2023/07/30 03:12:01;;;;;;;15.97;9.10;;;;;;;19.28;72.36;100055.20;125247;1102;102022;-83
2023/07/30 03:14:32;;;;;;;18.47;8.57;;;;;;;19.26;71.98;100050.78;125227;1102;104297;-84
2023/07/30 03:17:04;;;;;;;16.87;8.53;;;;;;;19.29;71.74;100054.33;124996;1102;104102;-83
2023/07/30 03:19:36;;;;;;;16.10;8.77;;;;;;;19.32;72.40;100048.08;125222;1102;103386;-84
2023/07/30 03:22:07;;;;;;;16.35;8.25;;;;;;;19.34;72.18;100052.50;125202;1102;104185;-84
2023/07/30 03:24:38;;;;;;;20.43;8.50;;;;;;;19.38;72.75;100054.25;124817;1102;104220;-84
2023/07/30 03:27:10;;;;;;;15.80;8.50;;;;;;;19.47;71.68;100057.73;124935;1102;104262;-83
2023/07/30 03:29:41;;;;;;;16.53;8.33;;;;;;;19.48;72.19;100059.51;124860;1102;104307;-84
2023/07/30 03:32:13;;;;;;;18.63;8.20;;;;;;;19.54;72.52;100062.09;124852;1102;102617;-85
2023/07/30 03:34:44;;;;;;;17.80;8.80;;;;;;;19.63;71.78;100058.48;125198;1102;104307;-83
2023/07/30 03:37:15;;;;;;;16.33;7.93;;;;;;;19.69;72.01;100069.95;125188;1102;104335;-83
2023/07/30 03:39:46;;;;;;;15.97;8.23;;;;;;;19.77;72.51;100066.38;125081;1102;102654;-83
2023/07/30 03:42:18;;;;;;;16.80;8.40;;;;;;;19.83;72.37;100068.99;125094;1102;104179;-82
2023/07/30 03:44:49;;;;;;;16.70;8.20;;;;;;;19.84;72.36;100060.12;125109;1102;102164;-81
2023/07/30 03:47:20;;;;;;;15.73;8.07;;;;;;;19.83;72.40;100055.68;125017;1102;104230;-83
2023/07/30 03:49:51;;;;;;;15.93;8.40;;;;;;;19.88;71.74;100052.09;124920;1102;104255;-83
2023/07/30 03:52:23;;;;;;;16.27;8.57;;;;;;;19.91;71.45;100065.38;124812;1102;102046;-83
2023/07/30 03:54:54;;;;;;;17.17;8.20;;;;;;;19.96;72.09;100062.66;124912;1102;104326;-82
2023/07/30 03:57:26;;;;;;;16.93;8.03;;;;;;;20.03;71.68;100063.48;124959;1102;102036;-82
2023/07/30 03:59:57;;;;;;;18.17;8.47;;;;;;;20.07;72.07;100059.86;124989;1102;102557;-82
2023/07/30 04:02:28;;;;;;;17.53;8.17;;;;;;;20.10;71.67;100062.50;124988;1101;104415;-82
2023/07/30 04:04:59;;;;;;;17.03;8.60;;;;;;;20.14;72.53;100058.05;124927;1102;102297;-82
2023/07/30 04:07:31;;;;;;;16.10;8.77;;;;;;;20.18;71.62;100062.41;124904;1102;104185;-82
2023/07/30 04:10:02;;;;;;;16.50;8.37;;;;;;;20.19;72.58;100057.08;124965;1102;102217;-82
2023/07/30 04:12:33;;;;;;;16.37;8.47;;;;;;;20.22;72.27;100054.37;124831;1102;104217;-82
2023/07/30 04:15:06;;;;;;;17.17;8.87;;;;;;;20.29;72.27;100050.76;124850;1101;104217;-82
2023/07/30 04:17:39;;;;;;;15.33;7.97;;;;;;;20.40;72.40;100047.97;124863;1102;104232;-82
2023/07/30 04:20:12;;;;;;;18.15;8.28;;;;;;;20.51;72.57;100049.64;124998;1102;104332;-81
2023/07/30 04:22:43;;;;;;;15.93;8.20;;;;;;;20.61;72.52;100054.80;125092;1101;104185;-83
2023/07/30 04:25:14;;;;;;;16.33;8.23;;;;;;;20.69;72.66;100049.41;125175;1102;101921;-83
2023/07/30 04:27:45;;;;;;;14.80;8.27;;;;;;;20.75;72.71;100048.45;124972;1102;104233;-82
2023/07/30 04:30:17;;;;;;;16.90;8.00;;;;;;;20.82;72.59;100043.02;124940;1102;104185;-81
2023/07/30 04:32:48;;;;;;;15.90;8.20;;;;;;;20.86;72.53;100043.85;124941;1102;104230;-81
2023/07/30 04:35:19;;;;;;;15.07;7.77;;;;;;;20.93;72.07;100047.34;124836;1102;104278;-81
2023/07/30 04:37:51;;;;;;;18.70;8.23;;;;;;;20.96;72.19;100050.83;125022;1102;104121;-81
2023/07/30 04:40:22;;;;;;;17.17;8.50;;;;;;;20.98;72.24;100054.34;124758;1102;104258;-82
2023/07/30 04:42:54;;;;;;;15.90;8.90;;;;;;;21.01;71.70;100042.77;124988;1102;104176;-81
2023/07/30 04:45:25;;;;;;;15.33;8.93;;;;;;;21.06;71.63;100048.91;124994;1102;104439;-81
2023/07/30 04:47:57;;;;;;;16.03;7.70;;;;;;;21.13;72.07;100045.26;125334;1102;101800;-82
2023/07/30 04:50:28;;;;;;;14.57;7.80;;;;;;;21.21;71.94;100041.57;125000;1102;104310;-81
2023/07/30 04:53:00;;;;;;;13.77;7.83;;;;;;;21.28;72.33;100040.58;125156;1102;101921;-84
2023/07/30 04:55:31;;;;;;;19.10;8.37;;;;;;;21.32;72.09;100040.52;125222;1102;104185;-81
2023/07/30 04:58:03;;;;;;;17.43;8.80;;;;;;;21.37;71.76;100040.44;125977;1102;101796;-81
2023/07/30 05:00:34;;;;;;;21.10;8.27;;;;;;;21.41;71.69;100043.92;125196;1102;104175;-82
2023/07/30 05:03:06;;;;;;;13.93;7.90;;;;;;;21.48;72.40;100042.94;125039;1102;102154;-81
2023/07/30 05:05:37;;;;;;;16.37;7.63;;;;;;;21.54;71.56;100048.20;124839;1102;104182;-81
2023/07/30 05:08:09;;;;;;;15.83;7.97;;;;;;;21.61;72.01;100055.19;125028;1102;104165;-80
2023/07/30 05:10:40;;;;;;;13.70;7.90;;;;;;;21.70;72.05;100055.03;125071;1102;104204;-80
2023/07/30 05:13:12;;;;;;;17.00;8.17;;;;;;;21.76;71.99;100054.05;124995;1102;104243;-81
2023/07/30 05:15:44;;;;;;;17.90;7.67;;;;;;;21.81;71.84;100053.98;125010;1102;104185;-81
2023/07/30 05:18:15;;;;;;;16.30;8.00;;;;;;;21.87;72.13;100054.73;125023;1102;104661;-80
2023/07/30 05:20:48;;;;;;;15.83;8.30;;;;;;;21.97;72.24;100054.58;125029;1102;104316;-82
2023/07/30 05:23:19;;;;;;;18.97;8.47;;;;;;;22.05;71.63;100052.67;124942;1102;110791;-82
2023/07/30 05:25:50;;;;;;;19.50;8.23;;;;;;;22.13;71.65;100042.70;125041;1102;104195;-82
2023/07/30 05:28:22;;;;;;;17.40;8.90;;;;;;;22.21;71.29;100040.76;125062;1102;104158;-82
2023/07/30 05:30:53;;;;;;;16.97;8.77;;;;;;;22.32;71.18;100045.05;124960;1102;104348;-81
2023/07/30 05:33:24;;;;;;;15.85;8.90;;;;;;;22.39;71.22;100046.67;124931;1102;104076;-82
2023/07/30 05:35:55;;;;;;;16.23;9.10;;;;;;;22.46;71.36;100040.30;125343;1102;103392;-84
2023/07/30 05:38:27;;;;;;;17.63;9.20;;;;;;;22.53;71.12;100043.72;125331;1101;101886;-85
2023/07/30 05:40:58;;;;;;;19.60;9.67;;;;;;;22.60;71.31;100038.22;125333;1102;101902;-84
2023/07/30 05:43:29;;;;;;;20.03;8.93;;;;;;;22.68;70.87;100035.38;125341;1101;104121;-85
2023/07/30 05:46:00;;;;;;;18.53;9.17;;;;;;;22.78;71.15;100041.39;124954;1102;101797;-81
2023/07/30 05:48:32;;;;;;;18.70;9.70;;;;;;;22.87;70.91;100037.65;125092;1102;104172;-80
2023/07/30 05:51:03;;;;;;;18.37;8.70;;;;;;;22.95;70.50;100033.91;125283;1102;101765;-87
2023/07/30 05:53:35;;;;;;;17.57;8.37;;;;;;;23.05;70.78;100034.56;125677;1093;102061;-84
2023/07/30 05:56:06;;;;;;;19.10;8.97;;;;;;;23.15;70.37;100035.25;125005;1101;104396;-79
2023/07/30 05:58:40;;;;;;;19.37;9.33;;;;;;;23.25;70.10;100034.13;124838;1102;104076;-85
2023/07/30 06:01:09;;;;;;;;;;;;;;;23.36;70.14;100031.20;124971;1101;104172;-84
2023/07/30 06:03:40;;;;;;;17.77;8.83;;;;;;;23.45;69.85;100033.64;125006;1102;101977;-84
2023/07/30 06:06:12;;;;;;;18.30;8.60;;;;;;;23.53;70.00;100038.81;125129;1102;102567;-82
2023/07/30 06:08:43;;;;;;;18.90;8.85;;;;;;;23.62;69.85;100038.58;124994;1102;104067;-82
2023/07/30 06:11:14;;;;;;;18.00;9.80;;;;;;;23.71;69.67;100041.93;125435;1099;104175;-79
2023/07/30 06:13:46;;;;;;;16.33;9.07;;;;;;;23.79;69.52;100039.92;126424;1093;102677;-83
2023/07/30 06:16:18;;;;;;;17.27;8.57;;;;;;;23.86;69.14;100038.89;125653;1102;104130;-82
2023/07/30 06:18:50;;;;;;;19.03;9.17;;;;;;;23.94;69.44;100034.20;126194;1102;102424;-84
2023/07/30 06:21:21;;;;;;;17.73;8.53;;;;;;;24.02;69.10;100034.86;126105;1102;101850;-81
2023/07/30 06:23:52;;;;;;;18.90;9.23;;;;;;;24.10;68.96;100020.38;125662;1102;102405;-82
2023/07/30 06:26:23;;;;;;;15.03;8.40;;;;;;;24.17;68.78;100019.30;125918;1102;102463;-83
2023/07/30 06:28:55;;;;;;;19.00;8.57;;;;;;;24.26;68.65;100015.46;125176;1102;101879;-82
2023/07/30 06:31:26;;;;;;;15.77;8.00;;;;;;;24.36;68.22;100007.11;125750;1093;102789;-84
2023/07/30 06:33:57;;;;;;;13.33;7.03;;;;;;;24.47;68.16;99998.75;125858;1093;102399;-83
2023/07/30 06:36:29;;;;;;;12.80;7.50;;;;;;;24.57;67.91;99996.70;125428;1102;102214;-79
2023/07/30 06:39:00;;;;;;;17.27;7.30;;;;;;;24.67;67.46;99998.19;125002;1102;102376;-83
2023/07/30 06:41:31;;;;;;;14.67;7.13;;;;;;;24.79;67.57;99996.05;125075;1102;102189;-81
2023/07/30 06:44:03;;;;;;;15.20;7.33;;;;;;;24.89;67.34;100001.08;124834;1102;101915;-82
2023/07/30 06:46:34;;;;;;;17.10;7.97;;;;;;;25.01;67.12;100002.52;125097;1102;101827;-83
2023/07/30 06:49:05;;;;;;;18.40;8.23;;;;;;;25.15;66.64;100003.85;124979;1102;104205;-78
2023/07/30 06:51:37;;;;;;;14.40;7.03;;;;;;;25.29;66.56;99996.25;124933;1102;104185;-82
2023/07/30 06:54:08;;;;;;;11.60;6.90;;;;;;;25.43;66.40;99993.11;125091;1102;104175;-83
2023/07/30 06:56:39;;;;;;;14.70;7.17;;;;;;;25.55;66.31;99987.32;124964;1102;104194;-81
2023/07/30 06:59:10;;;;;;;13.27;6.90;;;;;;;25.71;65.98;99981.41;124972;1102;102034;-81
2023/07/30 07:01:42;;;;;;;17.20;8.33;;;;;;;25.87;65.71;99982.64;124905;1102;101877;-80
2023/07/30 07:04:15;;;;;;;14.43;6.80;;;;;;;25.99;65.64;99978.65;124849;1102;104280;-79
2023/07/30 07:06:46;;;;;;;14.23;6.67;;;;;;;26.10;64.79;99979.16;124999;1102;101798;-81
2023/07/30 07:09:17;;;;;;;11.77;6.50;;;;;;;26.19;64.61;99977.91;125016;1102;102118;-83
2023/07/30 07:11:49;;;;;;;13.63;6.47;;;;;;;26.35;63.92;99970.14;125083;1102;102762;-81
2023/07/30 07:14:20;;;;;;;11.30;6.13;;;;;;;26.53;63.83;99965.88;124940;1102;102591;-81
2023/07/30 07:16:51;;;;;;;11.77;5.97;;;;;;;26.68;63.65;99964.45;125088;1102;104287;-79
2023/07/30 07:19:22;;;;;;;11.97;5.90;;;;;;;26.85;63.08;99955.70;125101;1102;104175;-84
2023/07/30 07:21:54;;;;;;;11.60;6.13;;;;;;;27.04;63.13;99966.59;125085;1101;102897;-81
2023/07/30 07:24:25;;;;;;;10.70;6.03;;;;;;;27.22;62.56;99954.16;124947;1102;104332;-80
2023/07/30 07:26:56;;;;;;;10.77;5.90;;;;;;;27.37;62.32;99958.08;125187;1102;104118;-79
2023/07/30 07:29:27;;;;;;;10.77;5.27;;;;;;;27.51;61.66;99957.48;125040;1102;101855;-82
2023/07/30 07:31:59;;;;;;;7.27;4.07;;;;;;;27.70;60.20;99962.94;124865;1102;102386;-78
2023/07/30 07:34:30;;;;;;;5.43;4.13;;;;;;;27.90;59.50;99967.45;125030;1102;102319;-82
2023/07/30 07:37:02;;;;;;;8.93;4.17;;;;;;;28.06;58.63;99965.84;125010;1102;104173;-81
2023/07/30 07:39:33;;;;;;;5.07;3.90;;;;;;;28.20;58.00;99973.30;124947;1102;104214;-82
2023/07/30 07:42:05;;;;;;;11.40;4.50;;;;;;;28.33;58.17;99969.10;125008;1102;104290;-82
2023/07/30 07:44:36;;;;;;;6.47;4.33;;;;;;;28.50;57.15;99976.41;125016;1102;102005;-81
2023/07/30 07:47:07;;;;;;;6.97;4.13;;;;;;;28.66;56.67;99975.72;125072;1102;102174;-82
2023/07/30 07:49:39;;;;;;;6.73;3.60;;;;;;;28.83;55.55;99972.21;125167;1102;101941;-83
2023/07/30 07:52:10;;;;;;;7.23;4.10;;;;;;;28.98;55.26;99979.53;125728;1096;101820;-82
2023/07/30 07:54:42;;;;;;;7.37;3.63;;;;;;;29.12;55.01;99970.75;125065;1102;105007;-83
2023/07/30 07:57:13;;;;;;;6.33;4.20;;;;;;;29.31;54.43;99980.67;124951;1102;104176;-84
2023/07/30 07:59:45;;;;;;;7.50;3.80;;;;;;;29.47;54.02;99972.69;124988;1101;104393;-82
2023/07/30 08:02:16;;;;;;;5.87;3.97;;;;;;;29.60;53.21;99970.22;124940;1102;104364;-82
2023/07/30 08:04:47;;;;;;;7.07;3.90;;;;;;;29.74;53.17;99963.11;124896;1102;104338;-80
2023/07/30 08:07:18;;;;;;;6.67;4.20;;;;;;;29.93;52.56;99967.59;125047;1102;102143;-81
2023/07/30 08:09:51;;;;;;;7.90;4.17;;;;;;;30.09;52.33;99962.22;124915;1102;104207;-81
2023/07/30 08:12:23;;;;;;;6.30;3.98;;;;;;;30.22;51.77;99957.91;124884;1103;102309;-83
2023/07/30 08:14:55;;;;;;;6.77;4.10;;;;;;;30.39;51.34;99959.72;125003;1102;102078;-81
2023/07/30 08:17:27;;;;;;;8.38;3.75;;;;;;;30.56;50.65;99966.89;124882;1102;104237;-82
2023/07/30 08:19:58;;;;;;;6.43;3.80;;;;;;;30.68;50.40;99968.02;125052;1102;104207;-84
2023/07/30 08:22:29;;;;;;;5.87;3.80;;;;;;;30.76;50.03;99965.77;124989;1102;102392;-81
2023/07/30 08:25:00;;;;;;;6.37;3.67;;;;;;;30.83;49.92;99952.75;125014;1102;104185;-81
2023/07/30 08:27:32;;;;;;;6.47;3.83;;;;;;;31.01;49.05;99961.70;125024;1101;102166;-82
2023/07/30 08:30:03;;;;;;;6.07;3.53;;;;;;;31.17;48.20;99964.38;124899;1102;104278;-84
2023/07/30 08:32:35;;;;;;;7.13;3.50;;;;;;;31.31;47.99;99967.13;124912;1102;104290;-81
2023/07/30 08:35:08;;;;;;;4.37;3.10;;;;;;;31.35;47.61;99963.30;124992;1102;102646;-86
2023/07/30 08:37:39;;;;;;;7.10;3.83;;;;;;;31.46;47.17;99953.63;124829;1102;104169;-82
2023/07/30 08:40:12;;;;;;;7.55;3.45;;;;;;;31.49;47.40;99962.47;125030;1102;104102;-82
2023/07/30 08:42:43;;;;;;;5.77;3.43;;;;;;;31.58;46.11;99952.92;125131;1102;102002;-83
2023/07/30 08:45:21;;;;;;;6.03;3.70;;;;;;;31.80;44.43;99952.47;125261;1101;101829;-83
2023/07/30 08:47:53;;;;;;;5.73;3.33;;;;;;;31.98;44.65;99942.34;125163;1101;104300;-84
2023/07/30 08:50:24;;;;;;;4.80;3.40;;;;;;;32.07;43.97;99935.47;124933;1102;102416;-80
2023/07/30 08:52:57;;;;;;;6.20;3.50;;;;;;;32.20;43.44;99941.02;125109;1102;102025;-85
2023/07/30 08:55:30;;;;;;;5.33;3.50;;;;;;;32.30;42.79;99935.87;124956;1102;102750;-86
2023/07/30 08:58:02;;;;;;;4.73;3.20;;;;;;;32.39;42.79;99940.70;124935;1102;104185;-81
2023/07/30 09:00:38;;;;;;;9.10;3.70;;;;;;;32.44;42.32;99938.56;125057;1101;104140;-84
2023/07/30 09:03:10;;;;;;;7.80;3.47;;;;;;;32.48;41.55;99931.11;124941;1102;102395;-82
2023/07/30 09:05:41;;;;;;;6.07;3.37;;;;;;;32.56;41.86;99928.76;124907;1102;104068;-83
2023/07/30 09:08:13;;;;;;;7.50;3.70;;;;;;;32.58;40.94;99924.98;124934;1102;102071;-82
2023/07/30 09:10:44;;;;;;;6.73;3.23;;;;;;;32.63;41.02;99919.25;124877;1102;104280;-85
2023/07/30 09:13:23;;;;;;;3.70;3.20;;;;;;;32.58;40.76;99913.22;124919;1102;104338;-83
2023/07/30 09:15:55;;;;;;;4.45;3.20;;;;;;;32.61;40.32;99913.92;125061;1102;104227;-84
2023/07/30 09:18:26;;;;;;;3.60;3.23;;;;;;;32.59;39.68;99914.98;126928;1101;104088;-81
2023/07/30 09:20:57;;;;;;;5.07;3.37;;;;;;;32.52;39.47;99905.48;126211;1102;102023;-81
2023/07/30 09:23:28;;;;;;;4.10;3.23;;;;;;;32.56;39.42;99899.75;125958;1101;101927;-79
2023/07/30 09:26:01;;;;;;;4.67;3.40;;;;;;;32.71;39.45;99905.16;125958;1102;102121;-80
2023/07/30 09:28:34;;;;;;;6.70;3.45;;;;;;;32.76;38.35;99897.61;125910;1102;102075;-82
2023/07/30 09:31:04;;;;;;;;;;;;;;;32.91;38.64;99901.13;124911;1102;102393;-80
2023/07/30 09:33:35;;;;;;;5.80;3.17;;;;;;;33.03;38.35;99903.02;124966;1102;104192;-86
2023/07/30 09:36:10;;;;;;;6.93;3.50;;;;;;;33.12;37.77;99902.39;124826;1102;104188;-82
2023/07/30 09:38:45;;;;;;;8.27;3.57;;;;;;;33.20;37.31;99898.33;124947;1102;102022;-80
2023/07/30 09:41:17;;;;;;;3.70;3.20;;;;;;;33.18;37.68;99895.72;124915;1101;103741;-81
2023/07/30 09:43:48;;;;;;;6.93;3.30;;;;;;;33.27;37.36;99883.31;124838;1102;104248;-79
2023/07/30 09:46:20;;;;;;;3.87;3.27;;;;;;;33.31;36.85;99885.72;124830;1102;104309;-84
2023/07/30 09:48:51;;;;;;;4.60;3.30;;;;;;;33.37;36.85;99875.42;124951;1102;104225;-80
2023/07/30 09:51:22;;;;;;;5.73;3.50;;;;;;;33.38;36.47;99874.42;124815;1102;101829;-80
2023/07/30 09:53:54;;;;;;;6.73;3.50;;;;;;;33.30;36.42;99875.84;124843;1102;102205;-83
2023/07/30 09:56:26;;;;;;;4.70;3.37;;;;;;;33.27;36.53;99864.29;124882;1100;104259;-81
2023/07/30 09:58:57;;;;;;;7.87;3.90;;;;;;;33.29;36.29;99855.06;125011;1102;102305;-85
2023/07/30 10:01:31;;;;;;;5.93;3.00;;;;;;;33.22;36.04;99853.73;124947;1102;102594;-84
2023/07/30 10:04:09;;;;;;;5.60;3.40;;;;;;;33.16;36.38;99854.16;124963;1101;104192;-84
2023/07/30 10:06:43;;;;;;;3.63;3.20;;;;;;;33.13;35.83;99855.23;125470;1102;104194;-87
2023/07/30 10:09:17;;;;;;;7.50;3.65;;;;;;;33.20;35.75;99861.13;124976;1101;101901;-84
2023/07/30 10:11:50;;;;;;;5.20;3.73;;;;;;;33.34;35.49;99849.30;125000;1102;102086;-80
2023/07/30 10:14:25;;;;;;;4.80;3.33;;;;;;;33.55;35.47;99849.66;124991;1102;104189;-81
2023/07/30 10:16:59;;;;;;;4.10;3.10;;;;;;;33.79;35.23;99849.77;124997;1102;101865;-84
2023/07/30 10:19:31;;;;;;;5.20;3.37;;;;;;;33.95;34.95;99835.06;124918;1102;104321;-82
2023/07/30 10:22:24;;;;;;;5.67;3.50;;;;;;;34.05;34.52;99844.31;124980;1102;101929;-81
2023/07/30 10:25:03;;;;;;;7.20;3.30;;;;;;;34.04;34.17;99845.28;124835;1102;104176;-80
2023/07/30 10:27:43;;;;;;;5.93;3.40;;;;;;;34.04;34.52;99834.39;125080;1102;101824;-81
2023/07/30 10:30:17;;;;;;;5.33;3.80;;;;;;;34.09;34.55;99834.06;124958;1102;104175;-82
2023/07/30 10:33:03;;;;;;;4.63;3.23;;;;;;;34.13;34.46;99836.45;124905;1102;102245;-83
2023/07/30 10:35:42;;;;;;;4.93;3.50;;;;;;;34.17;34.49;99828.91;124764;1102;102312;-80
2023/07/30 10:38:20;;;;;;;5.23;3.63;;;;;;;34.13;34.23;99838.31;124879;1102;104313;-81
2023/07/30 10:41:05;;;;;;;5.33;3.43;;;;;;;34.02;34.33;99829.06;124899;1102;104179;-81
2023/07/30 10:43:40;;;;;;;3.97;3.10;;;;;;;33.96;34.28;99826.80;124898;1102;102268;-81
2023/07/30 10:46:13;;;;;;;4.67;3.20;;;;;;;33.95;33.78;99827.76;124864;1102;104230;-81
2023/07/30 10:48:46;;;;;;;5.40;3.70;;;;;;;33.92;33.86;99833.42;124895;1102;102006;-83
2023/07/30 10:51:19;;;;;;;6.40;3.50;;;;;;;33.91;33.51;99833.53;124600;1102;104262;-80
2023/07/30 10:53:51;;;;;;;4.33;3.17;;;;;;;33.97;33.72;99827.65;124949;1102;104223;-81
2023/07/30 10:56:24;;;;;;;4.00;3.20;;;;;;;34.04;33.27;99827.09;124996;1102;104191;-82
2023/07/30 10:58:56;;;;;;;5.27;3.30;;;;;;;33.97;33.34;99822.20;124888;1102;103054;-81
2023/07/30 11:01:28;;;;;;;5.50;3.53;;;;;;;33.80;33.07;99824.32;124932;1102;104219;-81
2023/07/30 11:03:59;;;;;;;3.37;3.03;;;;;;;33.84;33.12;99814.94;124955;1101;104652;-79
2023/07/30 11:06:31;;;;;;;4.37;3.37;;;;;;;33.94;32.95;99812.44;124805;1102;104293;-79
2023/07/30 11:09:02;;;;;;;9.10;3.80;;;;;;;34.08;32.89;99811.42;124990;1102;102025;-81
2023/07/30 11:11:34;;;;;;;7.13;3.20;;;;;;;34.24;33.04;99813.91;124943;1102;104192;-81
2023/07/30 11:14:05;;;;;;;5.33;3.10;;;;;;;34.25;32.37;99815.63;124769;1102;101964;-77
2023/07/30 11:16:39;;;;;;;3.23;2.90;;;;;;;34.21;32.34;99803.22;124593;1102;104248;-79
2023/07/30 11:19:13;;;;;;;3.87;3.10;;;;;;;34.14;32.39;99802.81;124701;1102;104188;-78
2023/07/30 11:21:48;;;;;;;4.60;2.80;;;;;;;34.29;32.02;99805.40;124673;1102;104182;-78
2023/07/30 11:24:20;;;;;;;4.33;3.20;;;;;;;34.38;31.66;99802.84;124721;1102;101956;-78
2023/07/30 11:27:01;;;;;;;5.23;3.50;;;;;;;34.49;31.89;99803.91;124643;1102;101845;-79
2023/07/30 11:29:32;;;;;;;5.73;3.23;;;;;;;34.60;31.59;99803.09;124755;1102;102462;-79